Arthur, Nevada
Current Conditions -  °F | °C
As of 1:15 AM on Monday 24 Nov 2014 (Local Time) from KENV Reporting Station
Clear Clear  
Wind Chill: 31°   Ceiling: Unl
Heat Index: 37°   Visibility: 10mi
Dew Point: 16°   Wind: 9mph
Humidity: 41%   Direction: 330°NNW
Pressure: 30.21"   Gusts: NA
Location:  41.0114°N, 114.57°W
Report Text: KENV 240915Z AUTO 33008KT 10SM CLR 03/M09 A3021 RMK AO1
Loading
Personal Weather Stations






























Interactive Weather Map New forecast layout! Learn more

10-Day Weather Forecast

Advertisements
Track Severe Weather on mobile